Time;durP1;ratioP1;P1;durP2;ratioP2;P2;SDS_P1;SDS_P2;PMS_P1;PMS_P2;Temp;Humidity;BMP_temperature;BMP_pressure;BME280_temperature;BME280_humidity;BME280_pressure;Samples;Min_cycle;Max_cycle;Signal;HPM_P1;HPM_P2
2023/10/06 00:02:28;;;;;;;0.37;0.37;;;11.50;99.90;;;;;;4415744;32;20073;-78
2023/10/06 00:04:53;;;;;;;0.40;0.40;;;11.60;99.90;;;;;;4418912;32;20123;-79
2023/10/06 00:07:20;;;;;;;0.32;0.32;;;11.60;99.90;;;;;;4418856;32;20535;-78
2023/10/06 00:09:46;;;;;;;0.40;0.40;;;11.60;99.90;;;;;;4416826;32;20498;-78
2023/10/06 00:12:13;;;;;;;0.45;0.45;;;11.70;99.90;;;;;;4416831;32;20089;-79
2023/10/06 00:14:39;;;;;;;0.50;0.50;;;11.70;99.90;;;;;;4418193;32;20326;-77
2023/10/06 00:17:13;;;;;;;0.43;0.43;;;11.70;99.90;;;;;;4414711;32;20130;-77
2023/10/06 00:19:39;;;;;;;2.05;0.52;;;11.70;99.90;;;;;;4411802;32;20201;-77
2023/10/06 00:22:18;;;;;;;0.40;0.40;;;11.70;99.90;;;;;;4416694;32;20091;-80
2023/10/06 00:24:47;;;;;;;0.22;0.22;;;11.80;99.90;;;;;;4418544;32;20113;-79
2023/10/06 00:27:13;;;;;;;0.32;0.32;;;11.80;99.90;;;;;;4414800;32;20078;-79
2023/10/06 00:29:40;;;;;;;1.35;0.75;;;11.80;99.90;;;;;;4420213;32;20439;-78
2023/10/06 00:32:21;;;;;;;0.40;0.40;;;11.90;99.90;;;;;;4414136;32;20105;-79
2023/10/06 00:34:48;;;;;;;;;;;11.90;99.90;;;;;;4415037;32;20609;-78
2023/10/06 00:37:15;;;;;;;0.47;0.43;;;12.00;99.90;;;;;;4417827;32;19973;-79
2023/10/06 00:39:42;;;;;;;1.17;0.77;;;12.00;99.90;;;;;;4418311;32;20211;-79
2023/10/06 00:42:08;;;;;;;0.47;0.47;;;12.10;99.90;;;;;;4416494;32;20073;-78
2023/10/06 00:44:35;;;;;;;0.40;0.40;;;12.10;99.90;;;;;;4418840;32;20069;-79
2023/10/06 00:47:05;;;;;;;0.77;0.40;;;12.10;99.90;;;;;;4417094;32;20061;-77
2023/10/06 00:49:32;;;;;;;;;;;12.10;99.90;;;;;;4415562;32;20082;-79
2023/10/06 00:51:59;;;;;;;0.50;0.50;;;12.10;99.90;;;;;;4414725;32;19968;-79
2023/10/06 00:54:25;;;;;;;0.30;0.30;;;12.10;99.90;;;;;;4416606;32;20086;-78
2023/10/06 00:56:57;;;;;;;0.40;0.40;;;12.20;99.90;;;;;;4413691;32;20061;-78
2023/10/06 00:59:24;;;;;;;0.55;0.45;;;12.10;99.90;;;;;;4417054;32;20062;-79
2023/10/06 01:01:50;;;;;;;0.62;0.62;;;12.20;99.90;;;;;;4413805;32;20101;-78
2023/10/06 01:04:16;;;;;;;0.80;0.50;;;12.20;99.90;;;;;;4416017;32;20435;-75
2023/10/06 01:06:42;;;;;;;0.35;0.35;;;12.30;99.90;;;;;;4411479;32;20070;-74
2023/10/06 01:11:52;;;;;;;1.33;0.88;;;12.30;99.90;;;;;;4399580;32;20058;-75
2023/10/06 01:14:21;;;;;;;0.43;0.43;;;12.20;99.90;;;;;;4413928;32;20078;-74
2023/10/06 01:16:49;;;;;;;0.95;0.40;;;12.20;99.90;;;;;;4416091;32;20081;-74
2023/10/06 01:19:17;;;;;;;0.93;0.60;;;12.30;99.90;;;;;;4416715;32;20619;-74
2023/10/06 01:21:47;;;;;;;0.40;0.40;;;12.30;99.90;;;;;;4413833;32;20366;-75
2023/10/06 01:24:15;;;;;;;0.30;0.30;;;12.40;99.90;;;;;;4412211;32;20089;-75
2023/10/06 01:26:41;;;;;;;0.43;0.40;;;12.40;99.90;;;;;;4413272;32;20138;-75
2023/10/06 01:29:10;;;;;;;0.30;0.30;;;12.40;99.90;;;;;;4414818;32;20532;-74
2023/10/06 01:31:41;;;;;;;1.55;0.50;;;12.40;99.90;;;;;;4413419;32;20113;-75
2023/10/06 01:34:08;;;;;;;4.18;0.65;;;12.30;99.90;;;;;;4414065;32;20097;-74
2023/10/06 01:36:35;;;;;;;0.30;0.30;;;12.40;99.90;;;;;;4411643;32;20098;-75
2023/10/06 01:39:05;;;;;;;0.35;0.35;;;12.40;99.90;;;;;;4414804;32;20074;-74
2023/10/06 01:41:34;;;;;;;0.60;0.60;;;12.40;99.90;;;;;;4413423;32;20105;-74
2023/10/06 01:44:00;;;;;;;0.90;0.82;;;12.40;99.90;;;;;;4416267;32;20550;-75
2023/10/06 01:46:26;;;;;;;0.55;0.45;;;12.50;99.90;;;;;;4414551;32;20129;-75
2023/10/06 01:48:52;;;;;;;1.75;0.47;;;12.50;99.90;;;;;;4414668;32;20115;-75
2023/10/06 01:51:17;;;;;;;0.70;0.50;;;12.50;99.90;;;;;;4415230;32;20077;-76
2023/10/06 01:53:43;;;;;;;0.50;0.50;;;12.60;99.90;;;;;;4413526;32;20074;-75
2023/10/06 01:56:08;;;;;;;2.03;0.65;;;12.60;99.90;;;;;;4414951;32;20563;-75
2023/10/06 01:58:35;;;;;;;0.30;0.30;;;12.70;99.90;;;;;;4415375;32;20089;-76
2023/10/06 02:01:00;;;;;;;0.60;0.60;;;12.70;99.90;;;;;;4415928;32;20956;-75
2023/10/06 02:03:26;;;;;;;0.40;0.40;;;12.80;99.90;;;;;;4412915;32;20365;-74
2023/10/06 02:05:54;;;;;;;0.40;0.40;;;12.80;99.90;;;;;;4414735;32;20133;-75
2023/10/06 02:08:23;;;;;;;0.73;0.73;;;12.70;99.90;;;;;;4415668;32;20367;-75
2023/10/06 02:10:50;;;;;;;0.57;0.57;;;12.70;99.90;;;;;;4414457;32;20073;-75
2023/10/06 02:13:21;;;;;;;0.60;0.60;;;12.80;99.90;;;;;;4414293;32;20101;-74
2023/10/06 02:15:56;;;;;;;0.32;0.32;;;12.70;99.90;;;;;;4414902;32;20453;-75
2023/10/06 02:18:22;;;;;;;2.60;1.12;;;12.80;99.90;;;;;;4413581;32;20141;-74
2023/10/06 02:20:47;;;;;;;0.70;0.70;;;12.80;99.90;;;;;;4415243;32;21268;-75
2023/10/06 02:23:13;;;;;;;0.25;0.25;;;12.80;99.90;;;;;;4413975;32;20090;-74
2023/10/06 02:25:39;;;;;;;0.37;0.37;;;12.80;99.90;;;;;;4412559;32;20073;-74
2023/10/06 02:28:05;;;;;;;0.65;0.65;;;12.90;99.90;;;;;;4412228;32;20483;-74
2023/10/06 02:30:37;;;;;;;0.52;0.32;;;12.90;99.90;;;;;;4412533;32;20084;-74
2023/10/06 02:33:05;;;;;;;0.50;0.50;;;12.90;99.90;;;;;;4414057;32;20109;-74
2023/10/06 02:35:32;;;;;;;2.35;1.27;;;12.90;99.90;;;;;;4413302;32;20509;-76
2023/10/06 02:37:58;;;;;;;0.68;0.68;;;12.90;99.90;;;;;;4411975;32;20093;-75
2023/10/06 02:40:43;;;;;;;0.75;0.45;;;13.00;99.90;;;;;;4411901;32;20287;-74
2023/10/06 02:43:11;;;;;;;0.47;0.47;;;13.00;99.90;;;;;;4414257;32;20090;-74
2023/10/06 02:45:40;;;;;;;0.45;0.45;;;13.00;99.90;;;;;;4414647;32;20398;-74
2023/10/06 02:48:14;;;;;;;0.57;0.57;;;13.00;99.90;;;;;;4413776;32;20695;-76
2023/10/06 02:50:44;;;;;;;2.22;0.60;;;13.10;99.90;;;;;;4418712;32;20572;-75
2023/10/06 02:53:14;;;;;;;1.55;1.05;;;13.10;99.90;;;;;;4413501;32;20110;-75
2023/10/06 02:55:44;;;;;;;0.70;0.50;;;13.10;99.90;;;;;;4416560;32;20113;-75
2023/10/06 02:58:18;;;;;;;0.43;0.40;;;13.10;99.90;;;;;;4417019;32;20803;-75
2023/10/06 03:00:50;;;;;;;0.50;0.50;;;13.20;99.90;;;;;;4417041;32;20086;-74
2023/10/06 03:03:18;;;;;;;0.70;0.70;;;13.10;99.90;;;;;;4418439;32;20070;-75
2023/10/06 03:05:49;;;;;;;0.47;0.47;;;13.10;99.90;;;;;;4420013;32;20088;-76
2023/10/06 03:08:20;;;;;;;1.15;0.60;;;13.10;99.90;;;;;;4418272;32;20077;-75
2023/10/06 03:10:46;;;;;;;;;;;13.20;99.90;;;;;;4419259;32;20105;-74
2023/10/06 03:13:15;;;;;;;0.40;0.40;;;13.10;99.90;;;;;;4417507;32;19950;-74
2023/10/06 03:15:47;;;;;;;0.68;0.68;;;13.10;99.90;;;;;;4416920;32;20073;-76
2023/10/06 03:18:15;;;;;;;2.67;0.68;;;13.20;99.90;;;;;;4417734;32;20817;-75
2023/10/06 03:20:50;;;;;;;0.37;0.37;;;13.20;99.90;;;;;;4415755;32;20082;-75
2023/10/06 03:23:26;;;;;;;0.50;0.50;;;13.20;99.90;;;;;;4416865;32;20129;-75
2023/10/06 03:25:54;;;;;;;0.40;0.40;;;13.20;99.90;;;;;;4416942;32;20073;-77
2023/10/06 03:28:25;;;;;;;0.50;0.50;;;13.20;99.90;;;;;;4415979;32;20066;-77
2023/10/06 03:30:52;;;;;;;0.40;0.40;;;13.20;99.90;;;;;;4417877;32;20331;-77
2023/10/06 03:33:19;;;;;;;0.88;0.88;;;13.30;99.90;;;;;;4423147;32;20163;-77
2023/10/06 03:35:47;;;;;;;0.50;0.50;;;13.30;99.90;;;;;;4415685;32;20073;-77
2023/10/06 03:41:19;;;;;;;0.62;0.57;;;13.40;99.90;;;;;;4418045;32;20117;-76
2023/10/06 03:43:40;;;;;;;1.10;0.82;;;13.40;99.90;;;;;;4406700;32;20580;-77
2023/10/06 03:46:08;;;;;;;0.70;0.70;;;13.40;99.90;;;;;;4417385;32;20088;-76
2023/10/06 03:48:35;;;;;;;1.60;0.88;;;13.30;99.90;;;;;;4416939;32;20062;-76
2023/10/06 03:51:00;;;;;;;0.50;0.50;;;13.20;99.90;;;;;;4419916;32;20144;-77
2023/10/06 03:53:28;;;;;;;0.55;0.55;;;13.30;99.90;;;;;;4415206;32;20089;-76
2023/10/06 03:55:56;;;;;;;0.70;0.70;;;13.20;99.90;;;;;;4418153;32;20078;-77
2023/10/06 03:58:25;;;;;;;0.52;0.52;;;13.20;99.90;;;;;;4419762;32;20144;-77
2023/10/06 04:00:52;;;;;;;0.90;0.68;;;13.20;99.90;;;;;;4419674;32;20113;-77
2023/10/06 04:03:19;;;;;;;0.77;0.77;;;13.20;99.90;;;;;;4418415;32;20102;-77
2023/10/06 04:05:48;;;;;;;0.37;0.37;;;13.20;99.90;;;;;;4418097;32;20085;-79
2023/10/06 04:08:16;;;;;;;0.65;0.65;;;13.30;99.90;;;;;;4418349;32;20078;-78
2023/10/06 04:10:45;;;;;;;0.40;0.40;;;13.30;99.90;;;;;;4417846;32;20418;-75
2023/10/06 04:13:10;;;;;;;0.98;0.70;;;13.30;99.90;;;;;;4417938;32;20121;-77
2023/10/06 04:15:38;;;;;;;10.73;0.75;;;13.30;99.90;;;;;;4417850;32;20069;-77
2023/10/06 04:18:09;;;;;;;1.23;0.75;;;13.30;99.90;;;;;;4416552;32;20073;-75
2023/10/06 04:20:39;;;;;;;0.60;0.60;;;13.30;99.90;;;;;;4410426;32;20081;-76
2023/10/06 04:23:06;;;;;;;1.67;0.87;;;13.30;99.90;;;;;;4414024;32;20061;-75
2023/10/06 04:25:37;;;;;;;0.50;0.50;;;13.30;99.90;;;;;;4420877;32;20061;-75
2023/10/06 04:28:06;;;;;;;0.40;0.40;;;13.30;99.90;;;;;;4420349;32;20082;-77
2023/10/06 04:30:34;;;;;;;2.10;1.05;;;13.30;99.90;;;;;;4415497;32;20081;-76
2023/10/06 04:33:00;;;;;;;3.10;1.02;;;13.20;99.90;;;;;;4413825;32;20168;-77
2023/10/06 04:35:26;;;;;;;2.62;0.75;;;13.20;99.90;;;;;;4408597;32;20095;-73
2023/10/06 04:37:52;;;;;;;0.60;0.60;;;13.20;99.90;;;;;;4417277;32;20069;-75
2023/10/06 04:40:19;;;;;;;0.98;0.70;;;13.20;99.90;;;;;;4413532;32;20110;-72
2023/10/06 04:42:45;;;;;;;1.00;0.50;;;13.20;99.90;;;;;;4416137;32;20065;-74
2023/10/06 04:45:12;;;;;;;0.88;0.88;;;13.20;99.90;;;;;;4417720;32;20436;-75
2023/10/06 04:47:40;;;;;;;4.85;1.58;;;13.20;99.90;;;;;;4417795;32;20089;-74
2023/10/06 04:50:09;;;;;;;3.67;1.25;;;13.10;99.90;;;;;;4415328;32;20415;-74
2023/10/06 04:52:36;;;;;;;3.83;1.30;;;13.10;99.90;;;;;;4417405;32;20070;-73
2023/10/06 04:55:03;;;;;;;1.83;0.62;;;13.00;99.90;;;;;;4417579;32;20077;-73
2023/10/06 04:57:29;;;;;;;4.20;0.43;;;13.00;99.90;;;;;;4415403;32;20072;-75
2023/10/06 04:59:54;;;;;;;0.82;0.80;;;13.10;99.90;;;;;;4413884;32;20102;-74
2023/10/06 05:02:22;;;;;;;1.05;0.65;;;13.10;99.90;;;;;;4415162;32;20525;-73
2023/10/06 05:04:48;;;;;;;0.70;0.68;;;13.10;99.90;;;;;;4417606;32;20065;-74
2023/10/06 05:07:13;;;;;;;1.67;0.88;;;13.00;99.90;;;;;;4418246;32;20077;-73
2023/10/06 05:09:40;;;;;;;7.60;1.10;;;13.00;99.90;;;;;;4416312;32;20089;-75
2023/10/06 05:12:05;;;;;;;0.75;0.70;;;13.00;99.90;;;;;;4413887;32;20097;-73
2023/10/06 05:14:34;;;;;;;3.75;0.98;;;13.10;99.90;;;;;;4415892;32;20538;-73
2023/10/06 05:16:59;;;;;;;3.22;1.02;;;13.00;99.90;;;;;;4406580;32;20544;-76
2023/10/06 05:19:26;;;;;;;2.42;1.55;;;13.00;99.90;;;;;;4412929;32;20105;-74
2023/10/06 05:21:53;;;;;;;0.62;0.62;;;13.00;99.90;;;;;;4413038;32;20635;-74
2023/10/06 05:24:18;;;;;;;5.68;0.93;;;12.90;99.90;;;;;;4418152;32;20193;-73
2023/10/06 05:26:44;;;;;;;0.77;0.60;;;12.90;99.90;;;;;;4405652;32;20097;-75
2023/10/06 05:29:14;;;;;;;1.37;0.82;;;12.90;99.90;;;;;;4411153;32;20107;-74
2023/10/06 05:31:40;;;;;;;2.67;0.60;;;12.90;99.90;;;;;;4393654;32;20492;-73
2023/10/06 05:34:10;;;;;;;1.77;0.75;;;13.00;99.90;;;;;;4414559;32;20106;-74
2023/10/06 05:36:39;;;;;;;2.20;0.90;;;13.00;99.90;;;;;;4412249;32;20065;-74
2023/10/06 05:39:05;;;;;;;6.43;1.20;;;13.10;99.90;;;;;;4408778;32;20088;-73
2023/10/06 05:41:32;;;;;;;5.12;2.03;;;13.10;99.90;;;;;;4412808;32;20157;-75
2023/10/06 05:43:59;;;;;;;0.90;0.85;;;13.10;99.90;;;;;;4413065;32;20069;-78
2023/10/06 05:46:28;;;;;;;10.75;0.70;;;13.10;99.90;;;;;;4408356;32;21271;-78
2023/10/06 05:48:59;;;;;;;2.47;0.75;;;13.10;99.90;;;;;;4399160;32;20112;-78
2023/10/06 05:51:25;;;;;;;1.55;0.75;;;13.20;99.90;;;;;;4399789;32;20456;-78
2023/10/06 05:53:51;;;;;;;8.88;1.17;;;13.20;99.90;;;;;;4403945;32;20065;-78
2023/10/06 05:56:19;;;;;;;1.02;0.73;;;13.20;99.90;;;;;;4397958;32;20105;-75
2023/10/06 05:58:46;;;;;;;0.55;0.55;;;13.20;99.90;;;;;;4393346;32;20132;-76
2023/10/06 06:01:18;;;;;;;4.68;1.23;;;13.20;99.90;;;;;;4375619;32;20097;-76
2023/10/06 06:03:45;;;;;;;0.80;0.80;;;13.20;99.90;;;;;;4370522;32;20126;-77
2023/10/06 06:06:12;;;;;;;1.65;0.95;;;13.20;99.90;;;;;;4382186;32;20125;-75
2023/10/06 06:08:40;;;;;;;0.70;0.70;;;13.20;99.90;;;;;;4387192;32;20187;-78
2023/10/06 06:11:06;;;;;;;0.70;0.70;;;13.20;99.90;;;;;;4386479;32;20548;-77
2023/10/06 06:13:33;;;;;;;1.45;0.93;;;13.20;99.90;;;;;;4391970;32;20572;-76
2023/10/06 06:15:59;;;;;;;1.10;1.00;;;13.20;99.90;;;;;;4390179;32;20199;-76
2023/10/06 06:18:27;;;;;;;12.98;0.73;;;13.10;99.90;;;;;;4390116;32;20710;-75
2023/10/06 06:20:53;;;;;;;1.25;0.80;;;13.20;99.90;;;;;;4381462;32;20126;-77
2023/10/06 06:23:20;;;;;;;0.85;0.50;;;13.20;99.90;;;;;;4397628;32;20262;-77
2023/10/06 06:25:46;;;;;;;1.10;0.80;;;13.20;99.90;;;;;;4390644;32;20459;-79
2023/10/06 06:28:12;;;;;;;3.25;0.98;;;13.30;99.90;;;;;;4391341;32;20109;-76
2023/10/06 06:30:39;;;;;;;2.05;0.68;;;13.30;99.90;;;;;;4388350;32;20819;-76
2023/10/06 06:33:13;;;;;;;2.33;0.90;;;13.30;99.90;;;;;;4379310;32;20198;-76
2023/10/06 06:35:42;;;;;;;1.05;0.80;;;13.40;99.90;;;;;;4396282;32;20105;-78
2023/10/06 06:38:07;;;;;;;0.85;0.82;;;13.50;99.90;;;;;;4390298;32;20093;-75
2023/10/06 06:40:36;;;;;;;6.78;0.90;;;13.50;99.90;;;;;;4394628;32;20454;-76
2023/10/06 06:43:02;;;;;;;0.60;0.60;;;13.50;99.90;;;;;;4397062;32;20093;-75
2023/10/06 06:45:28;;;;;;;1.08;0.90;;;13.50;99.90;;;;;;4392110;32;20907;-77
2023/10/06 06:47:55;;;;;;;0.47;0.47;;;13.50;99.90;;;;;;4384692;32;20093;-76
2023/10/06 06:50:21;;;;;;;1.33;1.10;;;13.60;99.90;;;;;;4373179;32;20320;-77
2023/10/06 06:52:50;;;;;;;3.87;0.73;;;13.70;99.90;;;;;;4376571;32;20520;-76
2023/10/06 06:55:18;;;;;;;1.35;1.17;;;13.70;99.90;;;;;;4381033;32;20647;-77
2023/10/06 06:57:45;;;;;;;1.27;0.80;;;13.70;99.90;;;;;;4387267;32;20088;-76
2023/10/06 07:00:16;;;;;;;1.10;1.05;;;13.70;99.90;;;;;;4381437;32;20106;-75
2023/10/06 07:02:43;;;;;;;;;;;13.70;99.90;;;;;;4379869;32;20494;-75
2023/10/06 07:05:10;;;;;;;0.80;0.80;;;13.80;99.90;;;;;;4380732;32;20309;-76
2023/10/06 07:07:36;;;;;;;0.98;0.68;;;13.80;99.90;;;;;;4388270;32;20470;-76
2023/10/06 07:10:06;;;;;;;1.85;0.93;;;13.80;99.90;;;;;;4390120;32;20074;-77
2023/10/06 07:12:31;;;;;;;0.73;0.65;;;13.80;99.90;;;;;;4394271;32;20101;-76
2023/10/06 07:14:57;;;;;;;1.02;0.95;;;13.80;99.90;;;;;;4392258;32;20264;-76
2023/10/06 07:17:24;;;;;;;1.00;0.88;;;13.80;99.90;;;;;;4390087;32;20132;-77
2023/10/06 07:19:50;;;;;;;1.08;0.68;;;13.80;99.90;;;;;;4389631;32;20226;-77
2023/10/06 07:22:17;;;;;;;0.77;0.77;;;13.80;99.90;;;;;;4388885;32;20089;-76
2023/10/06 07:24:42;;;;;;;1.23;1.05;;;13.90;99.90;;;;;;4386962;32;20103;-77
2023/10/06 07:27:08;;;;;;;2.08;0.80;;;13.90;99.90;;;;;;4389060;32;20093;-75
2023/10/06 07:29:33;;;;;;;16.48;0.80;;;14.00;99.90;;;;;;4393254;32;20088;-76
2023/10/06 07:32:00;;;;;;;1.05;0.95;;;13.90;99.90;;;;;;4396859;32;20090;-76
2023/10/06 07:34:27;;;;;;;0.73;0.57;;;13.90;99.90;;;;;;4395189;32;20119;-78
2023/10/06 07:36:53;;;;;;;0.80;0.80;;;14.00;99.90;;;;;;4395380;32;20156;-81
2023/10/06 07:39:20;;;;;;;0.73;0.73;;;14.00;99.90;;;;;;4402129;32;20101;-80
2023/10/06 07:41:46;;;;;;;0.93;0.82;;;14.00;99.90;;;;;;4410575;32;20176;-79
2023/10/06 07:44:14;;;;;;;0.93;0.75;;;14.10;99.90;;;;;;4407791;32;20097;-79
2023/10/06 07:46:40;;;;;;;8.20;1.25;;;14.10;99.90;;;;;;4407284;32;20152;-81
2023/10/06 07:49:06;;;;;;;0.73;0.73;;;14.20;99.90;;;;;;4395198;32;20093;-77
2023/10/06 07:51:33;;;;;;;2.12;0.95;;;14.20;99.90;;;;;;4393777;32;20482;-81
2023/10/06 07:53:59;;;;;;;1.42;0.90;;;14.20;99.90;;;;;;4386136;32;20118;-78
2023/10/06 07:56:26;;;;;;;3.85;1.10;;;14.30;99.90;;;;;;4391711;32;20101;-79
2023/10/06 07:58:53;;;;;;;2.70;1.00;;;14.30;99.90;;;;;;4387286;32;20126;-78
2023/10/06 08:01:20;;;;;;;2.50;0.95;;;14.40;99.90;;;;;;4390332;32;20497;-79
2023/10/06 08:03:45;;;;;;;1.37;0.98;;;14.40;99.90;;;;;;4383763;32;20111;-77
2023/10/06 08:06:11;;;;;;;0.40;0.40;;;14.40;99.90;;;;;;4384815;32;20097;-77
2023/10/06 08:08:38;;;;;;;0.40;0.40;;;14.50;99.90;;;;;;4380973;32;20089;-79
2023/10/06 08:11:06;;;;;;;0.57;0.57;;;14.50;99.90;;;;;;4386571;32;21601;-81
2023/10/06 08:13:34;;;;;;;0.62;0.62;;;14.60;99.90;;;;;;4387690;32;21009;-78
2023/10/06 08:16:00;;;;;;;0.57;0.57;;;14.70;99.90;;;;;;4389102;32;20944;-77
2023/10/06 08:18:29;;;;;;;2.97;0.77;;;14.70;99.90;;;;;;4402817;32;20504;-77
2023/10/06 08:20:56;;;;;;;0.47;0.47;;;14.80;99.90;;;;;;4410798;32;20101;-77
2023/10/06 08:23:32;;;;;;;0.43;0.43;;;14.90;99.90;;;;;;4388387;32;20592;-76
2023/10/06 08:25:58;;;;;;;0.95;0.70;;;14.90;99.90;;;;;;4394942;32;20500;-77
2023/10/06 08:28:26;;;;;;;0.50;0.50;;;15.00;99.90;;;;;;4386910;32;20105;-77
2023/10/06 08:30:53;;;;;;;0.70;0.60;;;15.00;99.90;;;;;;4397460;32;20703;-77
2023/10/06 08:33:19;;;;;;;9.48;0.65;;;15.00;99.90;;;;;;4407819;32;20321;-78
2023/10/06 08:35:45;;;;;;;1.17;0.50;;;15.00;99.90;;;;;;4401541;32;20809;-76
2023/10/06 08:38:11;;;;;;;1.42;0.85;;;15.10;99.90;;;;;;4404488;32;20998;-77
2023/10/06 08:40:41;;;;;;;1.00;0.45;;;15.10;99.90;;;;;;4398084;32;20152;-76
2023/10/06 08:43:08;;;;;;;0.70;0.70;;;15.20;99.90;;;;;;4397997;32;20587;-77
2023/10/06 08:45:41;;;;;;;0.47;0.47;;;15.20;99.90;;;;;;4385622;32;20483;-76
2023/10/06 08:48:11;;;;;;;3.62;1.27;;;15.10;99.90;;;;;;4405964;32;20184;-76
2023/10/06 08:50:39;;;;;;;0.60;0.60;;;15.10;99.90;;;;;;4406260;32;20085;-77
2023/10/06 08:53:13;;;;;;;4.57;1.58;;;15.10;99.90;;;;;;4411675;32;20113;-77
2023/10/06 08:55:44;;;;;;;0.40;0.40;;;15.20;99.90;;;;;;4408087;32;20085;-77
2023/10/06 08:58:14;;;;;;;0.40;0.40;;;15.30;99.90;;;;;;4395126;32;20178;-76
2023/10/06 09:00:47;;;;;;;0.77;0.77;;;15.40;99.90;;;;;;4376364;32;21272;-76
2023/10/06 09:03:14;;;;;;;1.67;0.88;;;15.50;99.90;;;;;;4384160;32;21457;-76
2023/10/06 09:05:41;;;;;;;0.50;0.50;;;15.60;99.90;;;;;;4388405;32;20141;-76
2023/10/06 09:08:11;;;;;;;0.55;0.50;;;15.60;99.90;;;;;;4397677;32;21453;-77
2023/10/06 09:10:40;;;;;;;1.55;0.68;;;15.60;99.90;;;;;;4395997;32;20126;-77
2023/10/06 09:13:11;;;;;;;0.40;0.40;;;15.70;99.90;;;;;;4399794;32;20502;-75
2023/10/06 09:15:40;;;;;;;0.70;0.70;;;15.70;99.90;;;;;;4400309;32;20178;-77
2023/10/06 09:18:18;;;;;;;0.52;0.52;;;15.70;99.90;;;;;;4396504;32;20149;-77
2023/10/06 09:20:47;;;;;;;0.95;0.65;;;15.80;99.90;;;;;;4396740;32;20211;-76
2023/10/06 09:23:36;;;;;;;0.60;0.60;;;15.90;99.90;;;;;;4393410;32;20626;-76
2023/10/06 09:26:07;;;;;;;19.02;1.30;;;16.00;99.90;;;;;;4371695;32;20128;-77
2023/10/06 09:28:32;;;;;;;1.45;0.60;;;15.90;99.90;;;;;;4376578;32;20304;-73
2023/10/06 09:31:05;;;;;;;1.50;0.77;;;15.90;99.90;;;;;;4379455;32;20156;-74
2023/10/06 09:33:40;;;;;;;0.50;0.50;;;16.00;99.90;;;;;;4374732;32;20074;-75
2023/10/06 09:36:11;;;;;;;3.33;0.68;;;16.10;99.90;;;;;;4371862;32;20183;-75
2023/10/06 09:38:39;;;;;;;0.45;0.45;;;16.20;99.90;;;;;;4388292;32;21017;-74
2023/10/06 09:41:07;;;;;;;0.68;0.68;;;16.30;99.90;;;;;;4387641;32;20500;-75
2023/10/06 09:43:35;;;;;;;0.45;0.45;;;16.50;99.90;;;;;;4388756;32;20139;-74
2023/10/06 09:46:06;;;;;;;0.43;0.43;;;16.60;99.90;;;;;;4373438;32;20113;-74
2023/10/06 09:48:34;;;;;;;0.57;0.57;;;16.80;99.90;;;;;;4379230;32;20117;-73
2023/10/06 09:51:05;;;;;;;2.15;0.95;;;16.80;99.90;;;;;;4378034;32;21266;-74
2023/10/06 09:53:32;;;;;;;0.80;0.80;;;16.80;99.90;;;;;;4380377;32;20093;-73
2023/10/06 09:55:57;;;;;;;0.50;0.50;;;16.70;99.90;;;;;;4383489;32;20286;-74
2023/10/06 09:58:24;;;;;;;0.32;0.32;;;16.70;99.90;;;;;;4383726;32;20093;-76
2023/10/06 10:00:49;;;;;;;0.62;0.50;;;16.80;99.90;;;;;;4376410;32;20588;-75
2023/10/06 10:03:16;;;;;;;0.30;0.30;;;16.90;99.90;;;;;;4375997;32;20089;-74
2023/10/06 10:05:43;;;;;;;0.40;0.40;;;17.00;99.90;;;;;;4380248;32;20098;-78
2023/10/06 10:08:11;;;;;;;0.40;0.40;;;17.20;99.90;;;;;;4394135;32;20145;-79
2023/10/06 10:10:41;;;;;;;0.88;0.77;;;17.30;99.90;;;;;;4394860;32;20375;-78
2023/10/06 10:13:49;;;;;;;1.83;1.27;;;17.30;99.90;;;;;;4383318;32;20829;-74
2023/10/06 10:16:25;;;;;;;0.62;0.62;;;17.30;99.90;;;;;;4353890;32;20113;-74
2023/10/06 10:19:03;;;;;;;0.40;0.40;;;17.30;99.90;;;;;;4386080;32;20074;-74
2023/10/06 10:21:29;;;;;;;0.30;0.30;;;17.30;99.90;;;;;;4381841;32;20871;-74
2023/10/06 10:24:09;;;;;;;0.30;0.30;;;17.30;99.90;;;;;;4392912;32;20656;-75
2023/10/06 10:26:39;;;;;;;0.50;0.50;;;17.20;99.90;;;;;;4392917;32;20198;-74
2023/10/06 10:29:17;;;;;;;0.47;0.40;;;17.30;99.90;;;;;;4389895;32;20113;-74
2023/10/06 10:31:46;;;;;;;0.90;0.70;;;17.30;99.90;;;;;;4392188;32;20094;-74
2023/10/06 10:34:21;;;;;;;0.40;0.40;;;17.30;99.90;;;;;;4391830;32;20188;-75
2023/10/06 10:36:48;;;;;;;0.30;0.30;;;17.30;99.90;;;;;;4390144;32;20119;-75
2023/10/06 10:39:17;;;;;;;0.40;0.40;;;17.30;99.90;;;;;;4394933;32;20684;-75
2023/10/06 10:41:45;;;;;;;0.30;0.30;;;17.40;99.90;;;;;;4400052;32;20074;-73
2023/10/06 10:44:12;;;;;;;2.05;0.40;;;17.40;99.90;;;;;;4396853;32;20690;-72
2023/10/06 10:46:47;;;;;;;0.30;0.30;;;17.40;99.90;;;;;;4398864;32;20359;-73
2023/10/06 10:49:13;;;;;;;0.30;0.30;;;17.50;99.90;;;;;;4392329;32;20097;-72
2023/10/06 10:51:57;;;;;;;0.28;0.28;;;17.50;99.90;;;;;;4389365;32;20357;-72
2023/10/06 10:54:26;;;;;;;0.40;0.40;;;17.60;99.90;;;;;;4369256;32;20102;-74
2023/10/06 10:56:53;;;;;;;2.20;0.73;;;17.60;99.90;;;;;;4367635;32;20106;-76
2023/10/06 10:59:20;;;;;;;0.30;0.30;;;17.60;99.90;;;;;;4379913;32;20928;-75
2023/10/06 11:01:52;;;;;;;0.45;0.45;;;17.50;99.90;;;;;;4387377;32;20691;-77
2023/10/06 11:06:58;;;;;;;0.40;0.40;;;17.60;99.90;;;;;;4390676;32;20073;-74
2023/10/06 11:09:29;;;;;;;3.50;0.62;;;17.60;99.90;;;;;;4390619;32;20144;-71
2023/10/06 11:11:58;;;;;;;0.40;0.40;;;17.60;99.90;;;;;;4384679;32;20089;-75
2023/10/06 11:14:25;;;;;;;0.40;0.40;;;17.60;99.90;;;;;;4386204;32;21128;-75
2023/10/06 11:16:52;;;;;;;0.50;0.50;;;17.60;99.90;;;;;;4390190;32;20102;-74
2023/10/06 11:19:18;;;;;;;0.30;0.30;;;17.70;99.90;;;;;;4384389;32;20109;-75
2023/10/06 11:21:44;;;;;;;0.43;0.43;;;17.70;99.90;;;;;;4382261;32;20431;-75
2023/10/06 11:24:12;;;;;;;0.35;0.35;;;17.80;99.90;;;;;;4390863;32;20663;-74
2023/10/06 11:26:38;;;;;;;0.47;0.47;;;17.80;99.90;;;;;;4365033;32;20130;-74
2023/10/06 11:29:04;;;;;;;0.43;0.43;;;17.70;99.90;;;;;;4354002;32;20122;-77
2023/10/06 11:31:30;;;;;;;0.45;0.45;;;17.80;99.90;;;;;;4368723;32;21139;-75
2023/10/06 11:33:56;;;;;;;0.50;0.50;;;17.80;99.90;;;;;;4369166;32;21378;-75
2023/10/06 11:36:22;;;;;;;0.50;0.50;;;17.80;99.90;;;;;;4378517;32;20074;-74
2023/10/06 11:38:48;;;;;;;0.55;0.55;;;17.70;99.90;;;;;;4376661;32;20077;-76
2023/10/06 11:41:23;;;;;;;0.47;0.40;;;17.70;99.90;;;;;;4377576;32;20444;-74
2023/10/06 11:43:54;;;;;;;0.30;0.30;;;17.70;99.90;;;;;;4368902;32;21243;-74
2023/10/06 11:46:19;;;;;;;0.32;0.32;;;17.80;99.90;;;;;;4390373;32;20069;-75
2023/10/06 11:48:45;;;;;;;0.40;0.40;;;17.90;99.90;;;;;;4258363;32;4469347;-75
2023/10/06 11:51:12;;;;;;;0.20;0.20;;;18.00;99.90;;;;;;4385196;32;20114;-76
2023/10/06 11:53:40;;;;;;;0.65;0.62;;;18.30;99.90;;;;;;4397328;32;20081;-76
2023/10/06 11:56:10;;;;;;;0.40;0.40;;;18.50;99.90;;;;;;4392677;32;20089;-75
2023/10/06 11:58:37;;;;;;;0.43;0.43;;;18.80;99.90;;;;;;4387183;32;20686;-75
2023/10/06 12:01:04;;;;;;;0.30;0.30;;;19.10;99.90;;;;;;4398179;32;20104;-75
2023/10/06 12:03:41;;;;;;;0.40;0.40;;;19.30;99.90;;;;;;4403383;32;20140;-73
2023/10/06 12:06:11;;;;;;;0.47;0.40;;;19.50;99.90;;;;;;4389820;32;20184;-75
2023/10/06 12:08:45;;;;;;;0.20;0.20;;;19.70;99.90;;;;;;4396601;32;20370;-74
2023/10/06 12:11:13;;;;;;;2.22;0.90;;;19.70;99.90;;;;;;4397209;32;20097;-74
2023/10/06 12:13:39;;;;;;;3.00;1.20;;;19.50;99.90;;;;;;4396447;32;20525;-75
2023/10/06 12:16:20;;;;;;;7.35;0.47;;;19.40;99.90;;;;;;4391352;32;20077;-74
2023/10/06 12:18:46;;;;;;;;;;;19.30;99.90;;;;;;4394096;32;20160;-75
2023/10/06 12:21:15;;;;;;;0.43;0.43;;;19.30;99.90;;;;;;4397776;32;20432;-74
2023/10/06 12:23:42;;;;;;;0.30;0.30;;;19.30;99.90;;;;;;4398542;32;20081;-74
2023/10/06 12:26:07;;;;;;;0.30;0.30;;;19.20;99.90;;;;;;4399953;32;20767;-74
2023/10/06 12:28:34;;;;;;;2.10;0.75;;;19.10;99.90;;;;;;4403632;32;20113;-74
2023/10/06 12:31:02;;;;;;;0.25;0.25;;;19.00;99.90;;;;;;4410333;32;20070;-74
2023/10/06 12:33:29;;;;;;;4.35;0.55;;;18.80;99.90;;;;;;4409375;32;20109;-75
2023/10/06 12:35:54;;;;;;;0.30;0.30;;;18.80;99.90;;;;;;4405243;32;21263;-75
2023/10/06 12:38:20;;;;;;;0.28;0.28;;;18.80;99.90;;;;;;4404499;32;21817;-74
2023/10/06 12:40:46;;;;;;;0.22;0.22;;;18.80;99.90;;;;;;4409278;32;20435;-77
2023/10/06 12:43:13;;;;;;;0.28;0.28;;;18.70;99.90;;;;;;4405761;32;20097;-75
2023/10/06 12:45:38;;;;;;;0.40;0.40;;;18.60;99.90;;;;;;4412425;32;20069;-74
2023/10/06 12:48:05;;;;;;;0.37;0.30;;;18.50;99.90;;;;;;4410535;32;20393;-75
2023/10/06 12:50:30;;;;;;;0.30;0.30;;;18.50;99.90;;;;;;4409765;32;20136;-76
2023/10/06 12:52:56;;;;;;;0.50;0.50;;;18.50;99.90;;;;;;4412690;32;20108;-76
2023/10/06 12:55:24;;;;;;;0.40;0.40;;;18.40;99.90;;;;;;4416245;32;20085;-74
2023/10/06 12:57:51;;;;;;;0.30;0.30;;;18.40;99.90;;;;;;4417319;32;20136;-74
2023/10/06 13:00:19;;;;;;;0.50;0.50;;;18.40;99.90;;;;;;4420042;32;20061;-72
2023/10/06 13:02:47;;;;;;;0.65;0.55;;;18.30;99.90;;;;;;4412802;32;20070;-74